Time;durP1;ratioP1;P1;durP2;ratioP2;P2;SDS_P1;SDS_P2;PMS_P1;PMS_P2;Temp;Humidity;BMP_temperature;BMP_pressure;BME280_temperature;BME280_humidity;BME280_pressure;Samples;Min_cycle;Max_cycle;Signal;HPM_P1;HPM_P2
2023/03/24 00:01:06;;;;;;;10.60;5.45;;;;;;;;;;5043305;28;20532;-82
2023/03/24 00:03:33;;;;;;;9.65;5.95;;;;;;;;;;5041788;28;20437;-81
2023/03/24 00:06:00;;;;;;;11.45;5.45;;;;;;;;;;5039183;28;20421;-81
2023/03/24 00:08:30;;;;;;;10.50;5.82;;;;;;;;;;5041141;28;20430;-81
2023/03/24 00:11:03;;;;;;;10.48;5.93;;;;;;;;;;5044101;28;20418;-81
2023/03/24 00:13:30;;;;;;;8.63;5.17;;;;;;;;;;5040128;28;20415;-81
2023/03/24 00:15:57;;;;;;;9.67;5.90;;;;;;;;;;5039243;28;20556;-81
2023/03/24 00:18:25;;;;;;;7.97;5.40;;;;;;;;;;5039989;28;20415;-81
2023/03/24 00:20:57;;;;;;;8.77;6.00;;;;;;;;;;5041627;28;20797;-81
2023/03/24 00:23:23;;;;;;;12.23;5.78;;;;;;;;;;5042179;28;20411;-81
2023/03/24 00:26:01;;;;;;;11.00;5.80;;;;;;;;;;5040668;28;20419;-81
2023/03/24 00:28:28;;;;;;;9.45;5.97;;;;;;;;;;5041716;28;20445;-81
2023/03/24 00:30:55;;;;;;;10.43;5.60;;;;;;;;;;5040525;28;20850;-81
2023/03/24 00:33:22;;;;;;;11.65;5.90;;;;;;;;;;5039876;28;20431;-81
2023/03/24 00:35:50;;;;;;;10.43;5.50;;;;;;;;;;5042451;28;20417;-81
2023/03/24 00:38:16;;;;;;;8.50;5.40;;;;;;;;;;5039622;28;20490;-81
2023/03/24 00:40:44;;;;;;;12.82;5.60;;;;;;;;;;5040433;28;20423;-81
2023/03/24 00:43:13;;;;;;;9.27;5.88;;;;;;;;;;5041975;28;20425;-81
2023/03/24 00:45:44;;;;;;;9.73;5.20;;;;;;;;;;5043764;28;20417;-81
2023/03/24 00:48:13;;;;;;;11.13;5.53;;;;;;;;;;5043397;28;21363;-81
2023/03/24 00:50:40;;;;;;;9.73;5.90;;;;;;;;;;5043976;28;20442;-81
2023/03/24 00:53:07;;;;;;;12.02;5.93;;;;;;;;;;5042783;28;20427;-81
2023/03/24 00:55:36;;;;;;;12.02;6.10;;;;;;;;;;5047318;28;20427;-81
2023/03/24 00:58:03;;;;;;;10.57;6.32;;;;;;;;;;5046558;28;20471;-81
2023/03/24 01:00:31;;;;;;;11.18;5.25;;;;;;;;;;5044568;28;20439;-81
2023/03/24 01:03:02;;;;;;;11.15;5.80;;;;;;;;;;5045569;28;20938;-81
2023/03/24 01:05:29;;;;;;;10.03;5.90;;;;;;;;;;5046097;28;20810;-81
2023/03/24 01:07:56;;;;;;;11.40;5.40;;;;;;;;;;5046596;28;20452;-81
2023/03/24 01:10:25;;;;;;;10.95;5.45;;;;;;;;;;5041637;28;21117;-81
2023/03/24 01:12:52;;;;;;;13.23;6.45;;;;;;;;;;5048047;28;20431;-81
2023/03/24 01:15:19;;;;;;;11.88;6.25;;;;;;;;;;5039794;28;20835;-81
2023/03/24 01:17:47;;;;;;;12.18;6.00;;;;;;;;;;5043831;28;20936;-81
2023/03/24 01:20:14;;;;;;;11.48;5.80;;;;;;;;;;5047698;28;20424;-81
2023/03/24 01:22:43;;;;;;;12.57;6.27;;;;;;;;;;5047276;28;20937;-81
2023/03/24 01:25:11;;;;;;;9.07;6.32;;;;;;;;;;5044842;28;20432;-81
2023/03/24 01:27:38;;;;;;;10.57;6.10;;;;;;;;;;5047631;28;20430;-82
2023/03/24 01:30:06;;;;;;;12.17;6.33;;;;;;;;;;5044755;28;20961;-81
2023/03/24 01:32:33;;;;;;;9.82;6.03;;;;;;;;;;5048738;28;20463;-81
2023/03/24 01:35:01;;;;;;;10.50;6.30;;;;;;;;;;5041861;28;20789;-81
2023/03/24 01:37:27;;;;;;;11.00;6.40;;;;;;;;;;5040139;28;20906;-81
2023/03/24 01:39:54;;;;;;;11.37;6.27;;;;;;;;;;5046145;28;20419;-81
2023/03/24 01:42:21;;;;;;;9.18;6.10;;;;;;;;;;5046292;28;20440;-81
2023/03/24 01:44:49;;;;;;;13.10;6.63;;;;;;;;;;5045302;28;20419;-81
2023/03/24 01:47:16;;;;;;;12.00;6.43;;;;;;;;;;5043662;28;20506;-81
2023/03/24 01:49:46;;;;;;;9.68;6.60;;;;;;;;;;5042595;28;20422;-81
2023/03/24 01:52:17;;;;;;;14.27;7.07;;;;;;;;;;5043660;28;20440;-81
2023/03/24 01:54:45;;;;;;;12.18;6.25;;;;;;;;;;5045346;28;20427;-81
2023/03/24 01:57:14;;;;;;;9.82;6.88;;;;;;;;;;5044133;28;20427;-81
2023/03/24 01:59:42;;;;;;;12.00;7.70;;;;;;;;;;5045904;28;20423;-81
2023/03/24 02:02:08;;;;;;;14.25;7.80;;;;;;;;;;5043001;28;20930;-81
2023/03/24 02:04:38;;;;;;;12.95;7.80;;;;;;;;;;5041151;28;20419;-81
2023/03/24 02:07:08;;;;;;;12.48;8.18;;;;;;;;;;5042848;28;20442;-81
2023/03/24 02:09:36;;;;;;;11.03;8.10;;;;;;;;;;5044764;28;20423;-81
2023/03/24 02:12:03;;;;;;;13.05;8.10;;;;;;;;;;5042551;28;20455;-81
2023/03/24 02:14:30;;;;;;;11.07;8.45;;;;;;;;;;5046458;28;20415;-81
2023/03/24 02:17:12;;;;;;;15.70;8.73;;;;;;;;;;5044773;28;20430;-81
2023/03/24 02:19:57;;;;;;;11.57;9.60;;;;;;;;;;5042786;28;20460;-81
2023/03/24 02:22:39;;;;;;;11.18;8.50;;;;;;;;;;5045980;28;20429;-81
2023/03/24 02:25:23;;;;;;;13.77;8.63;;;;;;;;;;5038727;28;20486;-81
2023/03/24 02:27:58;;;;;;;11.20;8.70;;;;;;;;;;5045917;28;20916;-81
2023/03/24 02:30:40;;;;;;;13.55;9.88;;;;;;;;;;5044931;28;20429;-81
2023/03/24 02:33:21;;;;;;;13.10;9.07;;;;;;;;;;5045845;28;20488;-81
2023/03/24 02:36:01;;;;;;;12.65;9.30;;;;;;;;;;5046550;28;20432;-81
2023/03/24 02:38:37;;;;;;;16.23;9.57;;;;;;;;;;5041387;28;20443;-81
2023/03/24 02:41:09;;;;;;;11.20;9.30;;;;;;;;;;5041928;28;20428;-81
2023/03/24 02:43:39;;;;;;;11.77;9.40;;;;;;;;;;5043785;28;20422;-81
2023/03/24 02:46:12;;;;;;;12.15;9.40;;;;;;;;;;5044608;28;20433;-81
2023/03/24 02:48:43;;;;;;;14.35;10.25;;;;;;;;;;5046333;28;20439;-81
2023/03/24 02:51:13;;;;;;;14.35;10.70;;;;;;;;;;5044601;28;20432;-81
2023/03/24 02:53:45;;;;;;;12.98;10.60;;;;;;;;;;5043794;28;20427;-81
2023/03/24 02:56:15;;;;;;;12.38;10.23;;;;;;;;;;5040791;28;20434;-81
2023/03/24 02:58:47;;;;;;;12.13;10.73;;;;;;;;;;5045328;28;20522;-81
2023/03/24 03:01:16;;;;;;;13.30;10.95;;;;;;;;;;5044450;28;20509;-81
2023/03/24 03:03:47;;;;;;;14.77;11.25;;;;;;;;;;5037410;28;21014;-81
2023/03/24 03:06:15;;;;;;;13.33;11.40;;;;;;;;;;5048722;28;20790;-81
2023/03/24 03:08:42;;;;;;;13.38;11.27;;;;;;;;;;5041033;28;20429;-81
2023/03/24 03:11:12;;;;;;;12.88;11.27;;;;;;;;;;5044169;28;20435;-81
2023/03/24 03:13:43;;;;;;;13.43;10.80;;;;;;;;;;5038979;28;20429;-81
2023/03/24 03:16:11;;;;;;;12.40;11.10;;;;;;;;;;5043850;28;20464;-81
2023/03/24 03:18:39;;;;;;;13.17;10.60;;;;;;;;;;5044103;28;20778;-81
2023/03/24 03:21:08;;;;;;;13.23;11.80;;;;;;;;;;5045130;28;20421;-81
2023/03/24 03:23:37;;;;;;;13.50;12.20;;;;;;;;;;5044098;28;20448;-81
2023/03/24 03:26:05;;;;;;;13.70;11.73;;;;;;;;;;5042994;28;20422;-81
2023/03/24 03:28:33;;;;;;;13.82;11.52;;;;;;;;;;5040927;28;20421;-81
2023/03/24 03:31:04;;;;;;;13.18;11.68;;;;;;;;;;5039762;28;20468;-81
2023/03/24 03:33:33;;;;;;;13.70;12.20;;;;;;;;;;5045139;28;20434;-81
2023/03/24 03:36:03;;;;;;;13.87;12.20;;;;;;;;;;5043606;28;20473;-81
2023/03/24 03:38:34;;;;;;;13.98;12.57;;;;;;;;;;5041951;28;20421;-81
2023/03/24 03:41:03;;;;;;;15.25;12.40;;;;;;;;;;5044776;28;20972;-81
2023/03/24 03:43:30;;;;;;;14.23;12.40;;;;;;;;;;5045292;28;20409;-81
2023/03/24 03:45:56;;;;;;;13.90;12.50;;;;;;;;;;5041147;28;20506;-81
2023/03/24 03:48:25;;;;;;;13.80;12.40;;;;;;;;;;5043575;28;20991;-81
2023/03/24 03:50:52;;;;;;;15.48;13.88;;;;;;;;;;5044360;28;20433;-81
2023/03/24 03:53:20;;;;;;;14.65;13.10;;;;;;;;;;5041586;28;20440;-81
2023/03/24 03:55:46;;;;;;;14.68;12.50;;;;;;;;;;5041553;28;20421;-81
2023/03/24 03:58:13;;;;;;;13.98;12.57;;;;;;;;;;5040860;28;20421;-81
2023/03/24 04:00:40;;;;;;;13.85;12.35;;;;;;;;;;5045674;28;20417;-80
2023/03/24 04:03:24;;;;;;;14.18;12.77;;;;;;;;;;5043448;28;20424;-81
2023/03/24 04:05:53;;;;;;;14.07;12.73;;;;;;;;;;5042819;28;20419;-81
2023/03/24 04:08:25;;;;;;;14.57;13.18;;;;;;;;;;5042037;28;20421;-81
2023/03/24 04:11:10;;;;;;;14.30;12.90;;;;;;;;;;5045165;28;20435;-81
2023/03/24 04:13:40;;;;;;;14.43;12.93;;;;;;;;;;5040205;28;20849;-81
2023/03/24 04:16:09;;;;;;;14.30;12.90;;;;;;;;;;5041909;28;20479;-81
2023/03/24 04:18:54;;;;;;;14.30;12.90;;;;;;;;;;5043346;28;20949;-81
2023/03/24 04:21:37;;;;;;;14.30;12.80;;;;;;;;;;5037985;28;20428;-81
2023/03/24 04:24:13;;;;;;;13.10;11.90;;;;;;;;;;5039981;28;21925;-80
2023/03/24 04:26:45;;;;;;;13.82;12.63;;;;;;;;;;5045907;28;20437;-81
2023/03/24 04:29:16;;;;;;;14.35;12.85;;;;;;;;;;5042330;28;20425;-81
2023/03/24 04:31:48;;;;;;;14.10;12.70;;;;;;;;;;5044077;28;20435;-81
2023/03/24 04:34:19;;;;;;;14.00;12.70;;;;;;;;;;5044201;28;20413;-81
2023/03/24 04:36:53;;;;;;;13.55;12.15;;;;;;;;;;5043319;28;20435;-81
2023/03/24 04:39:27;;;;;;;14.43;11.67;;;;;;;;;;5041736;28;20426;-81
2023/03/24 04:41:54;;;;;;;13.35;11.95;;;;;;;;;;5040448;28;20882;-81
2023/03/24 04:44:21;;;;;;;12.98;11.88;;;;;;;;;;5042750;28;20417;-81
2023/03/24 04:46:47;;;;;;;13.90;12.50;;;;;;;;;;5042824;28;20431;-81
2023/03/24 04:49:14;;;;;;;13.67;12.27;;;;;;;;;;5040133;28;20493;-80
2023/03/24 04:51:41;;;;;;;12.90;11.50;;;;;;;;;;5045635;28;20432;-81
2023/03/24 04:54:07;;;;;;;12.70;11.50;;;;;;;;;;5040882;28;20470;-81
2023/03/24 04:56:40;;;;;;;13.30;11.90;;;;;;;;;;5040671;28;20430;-81
2023/03/24 04:59:07;;;;;;;13.03;11.73;;;;;;;;;;5041345;28;20783;-81
2023/03/24 05:01:36;;;;;;;11.50;10.50;;;;;;;;;;5045486;28;20439;-80
2023/03/24 05:04:03;;;;;;;12.32;11.13;;;;;;;;;;5042287;28;20962;-81
2023/03/24 05:06:29;;;;;;;12.10;10.90;;;;;;;;;;5041281;28;20417;-81
2023/03/24 05:08:57;;;;;;;12.40;11.20;;;;;;;;;;5039176;28;20432;-81
2023/03/24 05:11:24;;;;;;;12.55;11.25;;;;;;;;;;5039833;28;20952;-80
2023/03/24 05:13:52;;;;;;;12.73;11.52;;;;;;;;;;5044116;28;20434;-80
2023/03/24 05:16:19;;;;;;;13.40;12.20;;;;;;;;;;5040704;28;20419;-80
2023/03/24 05:18:47;;;;;;;12.52;11.32;;;;;;;;;;5040187;28;20435;-80
2023/03/24 05:21:13;;;;;;;13.35;12.05;;;;;;;;;;5043067;28;20409;-80
2023/03/24 05:23:39;;;;;;;13.43;12.23;;;;;;;;;;5044528;28;20432;-81
2023/03/24 05:26:06;;;;;;;13.93;12.63;;;;;;;;;;5039644;28;20515;-80
2023/03/24 05:28:33;;;;;;;13.77;12.10;;;;;;;;;;5042585;28;20758;-80
2023/03/24 05:31:01;;;;;;;13.35;11.95;;;;;;;;;;5044647;28;20944;-81
2023/03/24 05:33:27;;;;;;;12.73;11.60;;;;;;;;;;5045138;28;20857;-80
2023/03/24 05:35:53;;;;;;;13.20;11.90;;;;;;;;;;5045662;28;20433;-80
2023/03/24 05:38:20;;;;;;;12.20;11.10;;;;;;;;;;5047315;28;20429;-80
2023/03/24 05:40:46;;;;;;;13.30;11.90;;;;;;;;;;5045650;28;20435;-81
2023/03/24 05:43:13;;;;;;;12.10;11.00;;;;;;;;;;5046876;28;20425;-80
2023/03/24 05:45:39;;;;;;;11.93;10.80;;;;;;;;;;5045046;28;20436;-81
2023/03/24 05:48:09;;;;;;;12.45;11.25;;;;;;;;;;5041632;28;20421;-80
2023/03/24 05:50:35;;;;;;;11.60;10.50;;;;;;;;;;5041791;28;20422;-80
2023/03/24 05:53:02;;;;;;;11.23;10.13;;;;;;;;;;5045119;28;20464;-80
2023/03/24 05:55:29;;;;;;;11.23;9.90;;;;;;;;;;5039265;28;20437;-80
2023/03/24 05:57:55;;;;;;;7.40;6.80;;;;;;;;;;5042614;28;20512;-80
2023/03/24 06:00:22;;;;;;;6.97;5.95;;;;;;;;;;5045097;28;20429;-80
2023/03/24 06:02:48;;;;;;;5.07;4.57;;;;;;;;;;5046176;28;21232;-80
2023/03/24 06:05:16;;;;;;;4.63;3.90;;;;;;;;;;5040034;28;20956;-80
2023/03/24 06:07:42;;;;;;;6.05;3.55;;;;;;;;;;5043033;28;20450;-80
2023/03/24 06:10:10;;;;;;;5.63;3.58;;;;;;;;;;5041205;28;20788;-81
2023/03/24 06:12:37;;;;;;;3.75;2.70;;;;;;;;;;5041815;28;20456;-80
2023/03/24 06:15:04;;;;;;;4.03;2.63;;;;;;;;;;5041544;28;20433;-81
2023/03/24 06:17:30;;;;;;;4.95;2.60;;;;;;;;;;5047259;28;20429;-80
2023/03/24 06:20:04;;;;;;;4.53;2.88;;;;;;;;;;5045069;28;20431;-81
2023/03/24 06:22:33;;;;;;;6.38;2.42;;;;;;;;;;5044634;28;20431;-81
2023/03/24 06:24:59;;;;;;;2.77;2.20;;;;;;;;;;5043546;28;20507;-80
2023/03/24 06:27:28;;;;;;;5.13;2.08;;;;;;;;;;5044474;28;20442;-80
2023/03/24 06:29:55;;;;;;;3.22;1.70;;;;;;;;;;5040902;28;21200;-80
2023/03/24 06:32:25;;;;;;;3.55;2.10;;;;;;;;;;5040815;28;20948;-80
2023/03/24 06:34:52;;;;;;;5.32;1.92;;;;;;;;;;5049076;28;20787;-77
2023/03/24 06:37:18;;;;;;;5.30;2.00;;;;;;;;;;5048896;28;20422;-77
2023/03/24 06:39:46;;;;;;;4.60;2.00;;;;;;;;;;5046968;28;20440;-79
2023/03/24 06:42:13;;;;;;;4.55;1.98;;;;;;;;;;5040146;28;20933;-79
2023/03/24 06:44:41;;;;;;;4.20;2.10;;;;;;;;;;5043759;28;20427;-79
2023/03/24 06:47:07;;;;;;;4.38;1.90;;;;;;;;;;5047861;28;20425;-79
2023/03/24 06:49:35;;;;;;;4.22;2.10;;;;;;;;;;5044385;28;20421;-79
2023/03/24 06:52:02;;;;;;;6.75;2.42;;;;;;;;;;5044322;28;20474;-78
2023/03/24 06:54:28;;;;;;;8.35;2.40;;;;;;;;;;5042196;28;20434;-80
2023/03/24 06:56:56;;;;;;;6.63;2.10;;;;;;;;;;5042443;28;20436;-78
2023/03/24 06:59:23;;;;;;;4.93;2.00;;;;;;;;;;5043891;28;20961;-78
2023/03/24 07:01:50;;;;;;;5.55;1.77;;;;;;;;;;5046445;28;21070;-80
2023/03/24 07:04:17;;;;;;;4.57;1.70;;;;;;;;;;5043266;28;20431;-80
2023/03/24 07:06:44;;;;;;;5.90;2.00;;;;;;;;;;5042461;28;20409;-79
2023/03/24 07:09:10;;;;;;;3.67;2.00;;;;;;;;;;5043855;28;20911;-78
2023/03/24 07:11:37;;;;;;;4.30;1.88;;;;;;;;;;5046057;28;20511;-78
2023/03/24 07:14:06;;;;;;;8.18;2.40;;;;;;;;;;5039720;28;20415;-78
2023/03/24 07:16:32;;;;;;;4.00;2.20;;;;;;;;;;5047031;28;20425;-79
2023/03/24 07:19:00;;;;;;;7.07;2.70;;;;;;;;;;5039954;28;20425;-80
2023/03/24 07:21:26;;;;;;;4.28;2.00;;;;;;;;;;5044206;28;20472;-79
2023/03/24 07:23:52;;;;;;;8.00;2.78;;;;;;;;;;5046754;28;20426;-80
2023/03/24 07:26:20;;;;;;;4.80;2.10;;;;;;;;;;5041559;28;20430;-79
2023/03/24 07:28:47;;;;;;;3.40;2.05;;;;;;;;;;5039799;28;20523;-80
2023/03/24 07:31:15;;;;;;;5.57;2.47;;;;;;;;;;5044208;28;20433;-81
2023/03/24 07:33:41;;;;;;;8.48;2.65;;;;;;;;;;5043502;28;20476;-81
2023/03/24 07:36:08;;;;;;;8.80;2.63;;;;;;;;;;5042867;28;20424;-80
2023/03/24 07:38:34;;;;;;;6.97;2.20;;;;;;;;;;5045084;28;20887;-81
2023/03/24 07:41:01;;;;;;;12.90;3.13;;;;;;;;;;5046358;28;20425;-81
2023/03/24 07:43:28;;;;;;;10.10;3.20;;;;;;;;;;5044775;28;20417;-79
2023/03/24 07:45:54;;;;;;;13.48;3.45;;;;;;;;;;5045450;28;20444;-80
2023/03/24 07:48:22;;;;;;;8.63;2.90;;;;;;;;;;5048749;28;20926;-80
2023/03/24 07:50:48;;;;;;;12.95;2.95;;;;;;;;;;5042404;28;20432;-79
2023/03/24 07:53:18;;;;;;;11.47;3.10;;;;;;;;;;5046631;28;20429;-80
2023/03/24 07:55:46;;;;;;;9.65;3.47;;;;;;;;;;5043188;28;20515;-86
2023/03/24 07:58:12;;;;;;;10.68;3.38;;;;;;;;;;5041468;28;20867;-81
2023/03/24 08:00:39;;;;;;;6.38;2.90;;;;;;;;;;5044408;28;20429;-81
2023/03/24 08:03:13;;;;;;;9.30;3.00;;;;;;;;;;5041541;28;20950;-81
2023/03/24 08:05:40;;;;;;;10.32;3.70;;;;;;;;;;5039075;28;20497;-81
2023/03/24 08:08:07;;;;;;;10.68;3.22;;;;;;;;;;5042292;28;20421;-82
2023/03/24 08:10:34;;;;;;;14.10;3.20;;;;;;;;;;5043277;28;20432;-80
2023/03/24 08:13:01;;;;;;;12.55;2.92;;;;;;;;;;5040912;28;20435;-82
2023/03/24 08:15:28;;;;;;;8.32;2.80;;;;;;;;;;5042213;28;20422;-82
2023/03/24 08:17:55;;;;;;;10.48;3.15;;;;;;;;;;5044094;28;20930;-81
2023/03/24 08:20:23;;;;;;;11.25;3.47;;;;;;;;;;5040386;28;20432;-81
2023/03/24 08:22:53;;;;;;;9.82;3.28;;;;;;;;;;5039996;28;20425;-81
2023/03/24 08:25:20;;;;;;;6.13;2.60;;;;;;;;;;5042712;28;20837;-81
2023/03/24 08:27:47;;;;;;;9.50;3.53;;;;;;;;;;5045561;28;20433;-81
2023/03/24 08:30:17;;;;;;;10.48;2.97;;;;;;;;;;5039619;28;20428;-81
2023/03/24 08:32:44;;;;;;;5.82;2.22;;;;;;;;;;5038477;28;20430;-81
2023/03/24 08:35:13;;;;;;;6.35;2.70;;;;;;;;;;5041107;28;20434;-81
2023/03/24 08:37:39;;;;;;;10.00;2.90;;;;;;;;;;5043912;28;20434;-81
2023/03/24 08:40:12;;;;;;;11.18;3.80;;;;;;;;;;5041036;28;20437;-81
2023/03/24 08:42:40;;;;;;;11.38;3.28;;;;;;;;;;5040039;28;20440;-81
2023/03/24 08:45:08;;;;;;;12.15;3.10;;;;;;;;;;5036953;28;20428;-82
2023/03/24 08:47:34;;;;;;;9.70;2.70;;;;;;;;;;5043894;28;20431;-81
2023/03/24 08:50:01;;;;;;;8.10;2.90;;;;;;;;;;5042833;28;20423;-81
2023/03/24 08:52:31;;;;;;;11.82;2.83;;;;;;;;;;5044857;28;20817;-81
2023/03/24 08:54:57;;;;;;;10.07;2.90;;;;;;;;;;5043562;28;20430;-81
2023/03/24 08:57:25;;;;;;;7.38;2.60;;;;;;;;;;5045012;28;20433;-81
2023/03/24 08:59:51;;;;;;;9.70;3.00;;;;;;;;;;5041789;28;20500;-80
2023/03/24 09:02:18;;;;;;;6.50;2.42;;;;;;;;;;5042836;28;20803;-81
2023/03/24 09:04:46;;;;;;;8.30;2.70;;;;;;;;;;5042816;28;20417;-81
2023/03/24 09:07:12;;;;;;;8.27;2.70;;;;;;;;;;5042609;28;20507;-82
2023/03/24 09:09:39;;;;;;;11.43;2.88;;;;;;;;;;5047366;28;20419;-81
2023/03/24 09:12:06;;;;;;;10.60;2.73;;;;;;;;;;5047222;28;20475;-81
2023/03/24 09:14:37;;;;;;;7.40;2.40;;;;;;;;;;5048061;28;20401;-81
2023/03/24 09:17:03;;;;;;;7.20;2.10;;;;;;;;;;5046648;28;20441;-81
2023/03/24 09:19:33;;;;;;;8.60;2.70;;;;;;;;;;5044398;28;20415;-81
2023/03/24 09:21:59;;;;;;;8.30;2.63;;;;;;;;;;5045889;28;20866;-81
2023/03/24 09:24:25;;;;;;;10.50;2.65;;;;;;;;;;5045235;28;20432;-81
2023/03/24 09:26:52;;;;;;;8.77;2.90;;;;;;;;;;5046132;28;20430;-80
2023/03/24 09:29:20;;;;;;;11.25;3.40;;;;;;;;;;5047250;28;20903;-81
2023/03/24 09:31:47;;;;;;;8.60;2.95;;;;;;;;;;5046715;28;20425;-80
2023/03/24 09:34:14;;;;;;;10.43;3.20;;;;;;;;;;5044488;28;20430;-81
2023/03/24 09:36:40;;;;;;;6.68;2.60;;;;;;;;;;5050749;28;20440;-82
2023/03/24 09:39:07;;;;;;;7.37;2.70;;;;;;;;;;5044503;28;20434;-81
2023/03/24 09:41:35;;;;;;;11.77;3.10;;;;;;;;;;5046819;28;20434;-82
2023/03/24 09:44:04;;;;;;;9.00;2.75;;;;;;;;;;5047815;28;20922;-81
2023/03/24 09:46:34;;;;;;;10.50;3.35;;;;;;;;;;5069338;28;20537;-81
2023/03/24 09:49:03;;;;;;;9.40;2.92;;;;;;;;;;5066981;28;20435;-81
2023/03/24 09:51:30;;;;;;;15.20;3.35;;;;;;;;;;5063458;28;20422;-81
2023/03/24 09:54:00;;;;;;;14.45;3.35;;;;;;;;;;5068606;28;20431;-81
2023/03/24 09:56:28;;;;;;;11.68;3.45;;;;;;;;;;5062558;28;20442;-81
2023/03/24 09:59:00;;;;;;;11.30;2.80;;;;;;;;;;5065412;28;20426;-81
2023/03/24 10:01:27;;;;;;;11.98;3.40;;;;;;;;;;5062168;28;20432;-81
2023/03/24 10:03:56;;;;;;;10.50;3.10;;;;;;;;;;5065808;28;20426;-81
2023/03/24 10:06:25;;;;;;;12.65;3.80;;;;;;;;;;5062868;28;20421;-81
2023/03/24 10:08:57;;;;;;;11.63;4.20;;;;;;;;;;5068579;28;20414;-81
2023/03/24 10:11:28;;;;;;;12.55;3.53;;;;;;;;;;5063575;28;20415;-81
2023/03/24 10:14:04;;;;;;;14.40;3.50;;;;;;;;;;5067725;28;20431;-81
2023/03/24 10:16:34;;;;;;;15.30;3.70;;;;;;;;;;5042601;28;20425;-81
2023/03/24 10:19:04;;;;;;;13.60;3.80;;;;;;;;;;5046392;28;20440;-81
2023/03/24 10:21:35;;;;;;;13.25;4.32;;;;;;;;;;5044241;28;20768;-81
2023/03/24 10:24:06;;;;;;;10.50;3.60;;;;;;;;;;5045004;28;20430;-82
2023/03/24 10:26:38;;;;;;;14.45;4.25;;;;;;;;;;5044810;28;20422;-81
2023/03/24 10:29:13;;;;;;;9.88;3.58;;;;;;;;;;5039750;28;20433;-81
2023/03/24 10:31:41;;;;;;;9.70;3.50;;;;;;;;;;5040749;28;20417;-81
2023/03/24 10:34:10;;;;;;;10.40;3.30;;;;;;;;;;5042671;28;20434;-81
2023/03/24 10:36:38;;;;;;;10.98;2.97;;;;;;;;;;5045877;28;20433;-81
2023/03/24 10:39:05;;;;;;;6.63;2.70;;;;;;;;;;5045112;28;20432;-81
2023/03/24 10:41:32;;;;;;;10.57;3.03;;;;;;;;;;5046223;28;20425;-81
2023/03/24 10:43:59;;;;;;;7.60;3.28;;;;;;;;;;5040777;28;20429;-81
2023/03/24 10:46:27;;;;;;;10.30;3.50;;;;;;;;;;5044977;28;20422;-81
2023/03/24 10:48:54;;;;;;;10.75;2.80;;;;;;;;;;5041855;28;20826;-81
2023/03/24 10:51:25;;;;;;;9.38;3.20;;;;;;;;;;5041489;28;20428;-81
2023/03/24 10:54:09;;;;;;;10.50;3.00;;;;;;;;;;5045578;28;20427;-81
2023/03/24 10:56:40;;;;;;;12.57;3.15;;;;;;;;;;5041767;28;20469;-81
2023/03/24 10:59:18;;;;;;;9.88;3.50;;;;;;;;;;5042188;28;20435;-82
2023/03/24 11:01:44;;;;;;;13.07;3.40;;;;;;;;;;5043952;28;20485;-81
2023/03/24 11:04:14;;;;;;;12.60;3.10;;;;;;;;;;5040800;28;20440;-82
2023/03/24 11:06:53;;;;;;;14.68;4.22;;;;;;;;;;5038640;28;20463;-81
2023/03/24 11:09:22;;;;;;;8.83;2.70;;;;;;;;;;5043766;28;20444;-81
2023/03/24 11:11:49;;;;;;;10.80;3.72;;;;;;;;;;5043819;28;20437;-81
2023/03/24 11:14:21;;;;;;;9.43;3.40;;;;;;;;;;5043586;28;20918;-81
2023/03/24 11:16:48;;;;;;;9.10;3.10;;;;;;;;;;5045065;28;20512;-81
2023/03/24 11:19:18;;;;;;;9.07;2.53;;;;;;;;;;5041637;28;20442;-79
2023/03/24 11:21:44;;;;;;;8.20;2.92;;;;;;;;;;5044412;28;20426;-80
2023/03/24 11:24:12;;;;;;;11.90;3.85;;;;;;;;;;5043594;28;20436;-80
2023/03/24 11:26:41;;;;;;;11.10;3.70;;;;;;;;;;5040019;28;20421;-80
2023/03/24 11:29:12;;;;;;;11.60;3.87;;;;;;;;;;5044453;28;20999;-80
2023/03/24 11:31:39;;;;;;;11.63;3.90;;;;;;;;;;5041726;28;20429;-80
2023/03/24 11:34:08;;;;;;;8.73;3.55;;;;;;;;;;5045317;28;20433;-80
2023/03/24 11:36:43;;;;;;;14.55;3.78;;;;;;;;;;5046009;28;20456;-80
2023/03/24 11:39:13;;;;;;;12.60;3.10;;;;;;;;;;5045430;28;20441;-80
2023/03/24 11:41:44;;;;;;;10.20;2.90;;;;;;;;;;5042408;28;20438;-81
2023/03/24 11:44:19;;;;;;;10.10;3.30;;;;;;;;;;5043166;28;20520;-80
2023/03/24 11:46:47;;;;;;;11.87;3.10;;;;;;;;;;5042150;28;20450;-80
2023/03/24 11:49:15;;;;;;;14.63;3.90;;;;;;;;;;5042182;28;20438;-81
2023/03/24 11:51:44;;;;;;;11.15;3.03;;;;;;;;;;5042589;28;20436;-80
2023/03/24 11:54:13;;;;;;;13.70;3.20;;;;;;;;;;5042408;28;20460;-81
2023/03/24 11:56:41;;;;;;;8.23;2.95;;;;;;;;;;5043466;28;20804;-80
2023/03/24 11:59:13;;;;;;;8.40;2.97;;;;;;;;;;5039766;28;20472;-80
2023/03/24 12:01:45;;;;;;;10.15;2.60;;;;;;;;;;5040623;28;20491;-80
2023/03/24 12:04:22;;;;;;;7.63;2.50;;;;;;;;;;5042484;28;20467;-80
2023/03/24 12:06:54;;;;;;;8.98;2.70;;;;;;;;;;5045572;28;20425;-80
2023/03/24 12:09:22;;;;;;;10.73;2.83;;;;;;;;;;5045661;28;20435;-79
2023/03/24 12:11:54;;;;;;;9.30;3.00;;;;;;;;;;5043590;28;20977;-80
2023/03/24 12:14:24;;;;;;;6.43;2.40;;;;;;;;;;5040618;28;20459;-78
2023/03/24 12:16:53;;;;;;;9.80;2.92;;;;;;;;;;5044893;28;20445;-78
2023/03/24 12:19:33;;;;;;;10.73;4.30;;;;;;;;;;5044011;28;21022;-79
2023/03/24 12:22:06;;;;;;;9.38;3.70;;;;;;;;;;5042717;28;20813;-80
2023/03/24 12:24:40;;;;;;;7.03;2.40;;;;;;;;;;5045907;28;20456;-80
2023/03/24 12:27:11;;;;;;;10.75;2.47;;;;;;;;;;5044589;28;20447;-80
2023/03/24 12:29:47;;;;;;;9.73;2.90;;;;;;;;;;5043682;28;20483;-78
2023/03/24 12:32:30;;;;;;;9.05;2.47;;;;;;;;;;5045545;28;20433;-78
2023/03/24 12:35:14;;;;;;;8.65;2.50;;;;;;;;;;5039803;28;20476;-79
2023/03/24 12:37:45;;;;;;;8.00;2.03;;;;;;;;;;5042590;28;20429;-77
2023/03/24 12:40:37;;;;;;;8.82;2.60;;;;;;;;;;5044882;28;20413;-78
2023/03/24 12:43:07;;;;;;;8.25;2.80;;;;;;;;;;5042289;28;20418;-78
2023/03/24 12:45:40;;;;;;;7.43;2.42;;;;;;;;;;5042127;28;20498;-79
2023/03/24 12:48:21;;;;;;;7.60;2.10;;;;;;;;;;5043177;28;20465;-79
2023/03/24 12:50:55;;;;;;;4.03;1.80;;;;;;;;;;5043306;28;20425;-79
2023/03/24 12:53:35;;;;;;;7.63;2.17;;;;;;;;;;5041028;28;20487;-79
2023/03/24 12:56:05;;;;;;;7.53;2.10;;;;;;;;;;5038638;28;20426;-79
2023/03/24 12:58:38;;;;;;;7.70;2.60;;;;;;;;;;5041560;28;20887;-79
2023/03/24 13:01:07;;;;;;;10.18;2.30;;;;;;;;;;5043193;28;20520;-80
2023/03/24 13:03:37;;;;;;;9.10;2.35;;;;;;;;;;5041299;28;20431;-79
2023/03/24 13:06:07;;;;;;;6.53;2.10;;;;;;;;;;5039842;28;20422;-79
2023/03/24 13:08:36;;;;;;;5.10;2.10;;;;;;;;;;5043708;28;21035;-79
2023/03/24 13:11:05;;;;;;;9.65;2.55;;;;;;;;;;5044114;28;20418;-79
2023/03/24 13:13:32;;;;;;;7.82;2.58;;;;;;;;;;5043452;28;20437;-80
2023/03/24 13:16:02;;;;;;;6.53;2.60;;;;;;;;;;5042759;28;20425;-79
2023/03/24 13:18:32;;;;;;;9.07;2.42;;;;;;;;;;5034515;28;21046;-78
2023/03/24 13:21:02;;;;;;;8.93;2.70;;;;;;;;;;5043507;28;20481;-79
2023/03/24 13:23:34;;;;;;;10.05;2.97;;;;;;;;;;5039264;28;20433;-79
2023/03/24 13:26:05;;;;;;;8.15;2.70;;;;;;;;;;5038187;28;20421;-79
2023/03/24 13:28:35;;;;;;;9.10;2.70;;;;;;;;;;5038554;28;21123;-79
2023/03/24 13:31:02;;;;;;;4.35;1.90;;;;;;;;;;5039728;28;20433;-80
2023/03/24 13:33:30;;;;;;;8.85;2.38;;;;;;;;;;5042786;28;20448;-78
2023/03/24 13:36:12;;;;;;;6.65;2.30;;;;;;;;;;5043093;28;20428;-79
2023/03/24 13:38:42;;;;;;;13.25;3.50;;;;;;;;;;5043111;28;20433;-80
2023/03/24 13:41:11;;;;;;;5.75;2.65;;;;;;;;;;5039248;28;20432;-77
2023/03/24 13:43:46;;;;;;;7.88;2.50;;;;;;;;;;5040407;28;20499;-77
2023/03/24 13:46:13;;;;;;;7.30;2.30;;;;;;;;;;5041540;28;20423;-78
2023/03/24 13:48:42;;;;;;;9.50;3.00;;;;;;;;;;5044577;28;20434;-78
2023/03/24 13:51:16;;;;;;;11.07;2.80;;;;;;;;;;5041125;28;20421;-79
2023/03/24 13:53:45;;;;;;;7.20;2.10;;;;;;;;;;5047852;28;20805;-79
2023/03/24 13:56:12;;;;;;;10.90;2.92;;;;;;;;;;5041854;28;20439;-79
2023/03/24 13:58:46;;;;;;;10.65;2.70;;;;;;;;;;5047088;28;20959;-79
2023/03/24 14:01:17;;;;;;;8.43;2.60;;;;;;;;;;5046027;28;20421;-79
2023/03/24 14:03:44;;;;;;;7.53;2.58;;;;;;;;;;5043641;28;20434;-79
2023/03/24 14:06:11;;;;;;;11.18;2.70;;;;;;;;;;5048750;28;20419;-79
2023/03/24 14:08:43;;;;;;;6.03;2.30;;;;;;;;;;5044647;28;20445;-77
2023/03/24 14:11:28;;;;;;;5.37;2.10;;;;;;;;;;5045702;28;20430;-78
2023/03/24 14:13:55;;;;;;;7.82;3.20;;;;;;;;;;5048136;28;20505;-80
2023/03/24 14:16:35;;;;;;;9.00;2.30;;;;;;;;;;5050017;28;20426;-77
2023/03/24 14:19:21;;;;;;;11.73;3.10;;;;;;;;;;5045982;28;20429;-81
2023/03/24 14:21:52;;;;;;;5.68;2.20;;;;;;;;;;5067241;28;20988;-78
2023/03/24 14:24:23;;;;;;;7.93;2.60;;;;;;;;;;5063781;28;20427;-78
2023/03/24 14:26:50;;;;;;;8.00;2.90;;;;;;;;;;5068346;28;20427;-77
2023/03/24 14:29:31;;;;;;;8.90;3.20;;;;;;;;;;5065404;28;20444;-78
2023/03/24 14:32:01;;;;;;;10.65;2.50;;;;;;;;;;5067599;28;20442;-78
2023/03/24 14:34:27;;;;;;;8.50;3.10;;;;;;;;;;5071122;28;20429;-78
2023/03/24 14:36:59;;;;;;;6.90;2.63;;;;;;;;;;5063994;28;20433;-81
2023/03/24 14:39:31;;;;;;;11.77;3.50;;;;;;;;;;5062762;28;20407;-79
2023/03/24 14:41:58;;;;;;;11.35;3.35;;;;;;;;;;5067223;28;20443;-79
2023/03/24 14:44:44;;;;;;;10.57;3.50;;;;;;;;;;5065953;28;20435;-79
2023/03/24 14:47:11;;;;;;;6.65;2.88;;;;;;;;;;5062851;28;20429;-79